sensor_id;sensor_type;location;lat;lon;timestamp;P1;durP1;ratioP1;P2;durP2;ratioP2
49978;SDS011;35869;50.990;6.962;2023-09-08T00:03:01;5.97;;;5.32;;
49978;SDS011;35869;50.990;6.962;2023-09-08T00:08:01;7.72;;;5.65;;
49978;SDS011;35869;50.990;6.962;2023-09-08T00:13:01;7.20;;;5.63;;
49978;SDS011;35869;50.990;6.962;2023-09-08T00:18:02;6.78;;;5.20;;
49978;SDS011;35869;50.990;6.962;2023-09-08T00:23:02;6.22;;;5.03;;
49978;SDS011;35869;50.990;6.962;2023-09-08T00:28:03;6.73;;;5.20;;
49978;SDS011;35869;50.990;6.962;2023-09-08T00:33:03;7.35;;;5.30;;
49978;SDS011;35869;50.990;6.962;2023-09-08T00:38:04;6.97;;;5.43;;
49978;SDS011;35869;50.990;6.962;2023-09-08T00:43:04;5.95;;;5.07;;
49978;SDS011;35869;50.990;6.962;2023-09-08T00:48:04;4.90;;;4.18;;
49978;SDS011;35869;50.990;6.962;2023-09-08T00:53:05;7.60;;;4.88;;
49978;SDS011;35869;50.990;6.962;2023-09-08T00:58:06;8.38;;;5.88;;
49978;SDS011;35869;50.990;6.962;2023-09-08T01:03:06;6.20;;;5.17;;
49978;SDS011;35869;50.990;6.962;2023-09-08T01:08:07;5.68;;;5.03;;
49978;SDS011;35869;50.990;6.962;2023-09-08T01:13:08;5.97;;;4.88;;
49978;SDS011;35869;50.990;6.962;2023-09-08T01:18:08;7.40;;;5.28;;
49978;SDS011;35869;50.990;6.962;2023-09-08T01:23:11;6.50;;;5.50;;
49978;SDS011;35869;50.990;6.962;2023-09-08T01:28:21;5.82;;;5.03;;
49978;SDS011;35869;50.990;6.962;2023-09-08T01:38:32;6.65;;;5.90;;
49978;SDS011;35869;50.990;6.962;2023-09-08T01:43:32;6.68;;;5.25;;
49978;SDS011;35869;50.990;6.962;2023-09-08T01:48:32;6.35;;;5.28;;
49978;SDS011;35869;50.990;6.962;2023-09-08T01:53:32;6.53;;;5.38;;
49978;SDS011;35869;50.990;6.962;2023-09-08T01:58:33;5.88;;;5.38;;
49978;SDS011;35869;50.990;6.962;2023-09-08T02:03:33;5.93;;;5.30;;
49978;SDS011;35869;50.990;6.962;2023-09-08T02:08:33;6.35;;;5.18;;
49978;SDS011;35869;50.990;6.962;2023-09-08T02:13:33;6.82;;;5.28;;
49978;SDS011;35869;50.990;6.962;2023-09-08T02:18:33;6.90;;;6.20;;
49978;SDS011;35869;50.990;6.962;2023-09-08T02:23:34;6.20;;;5.20;;
49978;SDS011;35869;50.990;6.962;2023-09-08T02:28:34;7.78;;;5.60;;
49978;SDS011;35869;50.990;6.962;2023-09-08T02:33:34;6.10;;;5.50;;
49978;SDS011;35869;50.990;6.962;2023-09-08T02:38:34;5.72;;;5.22;;
49978;SDS011;35869;50.990;6.962;2023-09-08T02:43:34;6.55;;;5.43;;
49978;SDS011;35869;50.990;6.962;2023-09-08T02:48:35;5.57;;;4.75;;
49978;SDS011;35869;50.990;6.962;2023-09-08T02:53:35;6.45;;;5.10;;
49978;SDS011;35869;50.990;6.962;2023-09-08T02:58:35;9.02;;;5.00;;
49978;SDS011;35869;50.990;6.962;2023-09-08T03:03:36;5.93;;;5.38;;
49978;SDS011;35869;50.990;6.962;2023-09-08T03:08:36;7.65;;;5.35;;
49978;SDS011;35869;50.990;6.962;2023-09-08T03:13:36;6.93;;;4.57;;
49978;SDS011;35869;50.990;6.962;2023-09-08T03:18:36;6.40;;;5.05;;
49978;SDS011;35869;50.990;6.962;2023-09-08T03:23:37;9.60;;;5.97;;
49978;SDS011;35869;50.990;6.962;2023-09-08T03:28:39;6.25;;;5.20;;
49978;SDS011;35869;50.990;6.962;2023-09-08T03:33:41;6.55;;;5.28;;
49978;SDS011;35869;50.990;6.962;2023-09-08T03:38:42;5.70;;;5.13;;
49978;SDS011;35869;50.990;6.962;2023-09-08T03:43:42;6.20;;;5.27;;
49978;SDS011;35869;50.990;6.962;2023-09-08T03:48:42;7.35;;;5.20;;
49978;SDS011;35869;50.990;6.962;2023-09-08T03:53:42;5.45;;;4.95;;
49978;SDS011;35869;50.990;6.962;2023-09-08T03:58:42;5.88;;;5.30;;
49978;SDS011;35869;50.990;6.962;2023-09-08T04:03:43;8.20;;;6.20;;
49978;SDS011;35869;50.990;6.962;2023-09-08T04:08:43;7.80;;;5.83;;
49978;SDS011;35869;50.990;6.962;2023-09-08T04:13:43;7.70;;;5.10;;
49978;SDS011;35869;50.990;6.962;2023-09-08T04:18:43;7.00;;;5.50;;
49978;SDS011;35869;50.990;6.962;2023-09-08T04:23:43;10.40;;;5.43;;
49978;SDS011;35869;50.990;6.962;2023-09-08T04:28:44;6.83;;;5.87;;
49978;SDS011;35869;50.990;6.962;2023-09-08T04:33:44;7.27;;;5.47;;
49978;SDS011;35869;50.990;6.962;2023-09-08T04:38:44;7.05;;;5.05;;
49978;SDS011;35869;50.990;6.962;2023-09-08T04:43:44;8.60;;;5.82;;
49978;SDS011;35869;50.990;6.962;2023-09-08T04:48:44;7.47;;;5.70;;
49978;SDS011;35869;50.990;6.962;2023-09-08T04:53:45;8.27;;;5.78;;
49978;SDS011;35869;50.990;6.962;2023-09-08T04:58:45;7.50;;;5.57;;
49978;SDS011;35869;50.990;6.962;2023-09-08T05:03:45;8.10;;;5.90;;
49978;SDS011;35869;50.990;6.962;2023-09-08T05:08:45;7.23;;;5.73;;
49978;SDS011;35869;50.990;6.962;2023-09-08T05:13:46;7.23;;;5.07;;
49978;SDS011;35869;50.990;6.962;2023-09-08T05:18:46;7.93;;;5.80;;
49978;SDS011;35869;50.990;6.962;2023-09-08T05:23:46;6.63;;;5.55;;
49978;SDS011;35869;50.990;6.962;2023-09-08T05:28:47;8.07;;;4.97;;
49978;SDS011;35869;50.990;6.962;2023-09-08T05:33:47;6.03;;;5.20;;
49978;SDS011;35869;50.990;6.962;2023-09-08T05:38:47;5.07;;;3.28;;
49978;SDS011;35869;50.990;6.962;2023-09-08T05:43:47;6.07;;;3.10;;
49978;SDS011;35869;50.990;6.962;2023-09-08T05:48:48;5.25;;;3.17;;
49978;SDS011;35869;50.990;6.962;2023-09-08T05:53:48;4.83;;;3.70;;
49978;SDS011;35869;50.990;6.962;2023-09-08T05:58:48;4.67;;;3.43;;
49978;SDS011;35869;50.990;6.962;2023-09-08T06:03:48;5.25;;;3.83;;
49978;SDS011;35869;50.990;6.962;2023-09-08T06:08:49;11.38;;;3.92;;
49978;SDS011;35869;50.990;6.962;2023-09-08T06:13:49;7.30;;;2.07;;
49978;SDS011;35869;50.990;6.962;2023-09-08T06:18:49;2.23;;;1.43;;
49978;SDS011;35869;50.990;6.962;2023-09-08T06:23:49;6.53;;;2.20;;
49978;SDS011;35869;50.990;6.962;2023-09-08T06:28:49;1.67;;;1.57;;
49978;SDS011;35869;50.990;6.962;2023-09-08T06:33:50;1.75;;;1.60;;
49978;SDS011;35869;50.990;6.962;2023-09-08T06:38:50;1.50;;;0.90;;
49978;SDS011;35869;50.990;6.962;2023-09-08T06:43:55;0.90;;;0.90;;
49978;SDS011;35869;50.990;6.962;2023-09-08T06:49:11;1.92;;;1.00;;
49978;SDS011;35869;50.990;6.962;2023-09-08T06:54:11;1.70;;;1.40;;
49978;SDS011;35869;50.990;6.962;2023-09-08T06:59:14;2.50;;;2.10;;
49978;SDS011;35869;50.990;6.962;2023-09-08T07:04:14;2.70;;;2.00;;
49978;SDS011;35869;50.990;6.962;2023-09-08T07:09:15;1.98;;;1.27;;
49978;SDS011;35869;50.990;6.962;2023-09-08T07:14:15;2.55;;;1.40;;
49978;SDS011;35869;50.990;6.962;2023-09-08T07:19:15;4.60;;;1.92;;
49978;SDS011;35869;50.990;6.962;2023-09-08T07:24:16;4.15;;;2.13;;
49978;SDS011;35869;50.990;6.962;2023-09-08T07:29:16;5.97;;;2.25;;
49978;SDS011;35869;50.990;6.962;2023-09-08T07:34:16;1.92;;;1.50;;
49978;SDS011;35869;50.990;6.962;2023-09-08T07:39:16;4.55;;;2.13;;
49978;SDS011;35869;50.990;6.962;2023-09-08T07:44:17;3.15;;;2.08;;
49978;SDS011;35869;50.990;6.962;2023-09-08T07:49:18;7.15;;;3.10;;
49978;SDS011;35869;50.990;6.962;2023-09-08T07:54:18;1.83;;;1.50;;
49978;SDS011;35869;50.990;6.962;2023-09-08T07:59:18;14.85;;;4.68;;
49978;SDS011;35869;50.990;6.962;2023-09-08T08:04:20;2.13;;;1.25;;
49978;SDS011;35869;50.990;6.962;2023-09-08T08:09:20;2.38;;;1.55;;
49978;SDS011;35869;50.990;6.962;2023-09-08T08:14:21;2.42;;;1.70;;
49978;SDS011;35869;50.990;6.962;2023-09-08T08:19:21;2.95;;;2.28;;
49978;SDS011;35869;50.990;6.962;2023-09-08T08:24:22;2.95;;;2.03;;
49978;SDS011;35869;50.990;6.962;2023-09-08T08:29:22;5.00;;;2.15;;
49978;SDS011;35869;50.990;6.962;2023-09-08T08:34:22;2.47;;;2.28;;
49978;SDS011;35869;50.990;6.962;2023-09-08T08:39:23;2.85;;;2.17;;
49978;SDS011;35869;50.990;6.962;2023-09-08T08:44:23;2.97;;;1.98;;
49978;SDS011;35869;50.990;6.962;2023-09-08T08:49:24;5.90;;;2.40;;
49978;SDS011;35869;50.990;6.962;2023-09-08T08:54:25;9.38;;;2.72;;
49978;SDS011;35869;50.990;6.962;2023-09-08T08:59:25;4.60;;;2.53;;
49978;SDS011;35869;50.990;6.962;2023-09-08T09:04:27;2.92;;;2.35;;
49978;SDS011;35869;50.990;6.962;2023-09-08T09:09:28;5.80;;;1.85;;
49978;SDS011;35869;50.990;6.962;2023-09-08T09:14:31;7.00;;;2.80;;
49978;SDS011;35869;50.990;6.962;2023-09-08T09:19:33;4.63;;;2.15;;
49978;SDS011;35869;50.990;6.962;2023-09-08T09:24:38;3.15;;;2.30;;
49978;SDS011;35869;50.990;6.962;2023-09-08T09:29:46;3.08;;;2.17;;
49978;SDS011;35869;50.990;6.962;2023-09-08T09:34:49;2.15;;;1.85;;
49978;SDS011;35869;50.990;6.962;2023-09-08T09:39:51;3.17;;;2.78;;
49978;SDS011;35869;50.990;6.962;2023-09-08T09:44:53;3.50;;;2.30;;
49978;SDS011;35869;50.990;6.962;2023-09-08T09:49:53;4.35;;;2.05;;
49978;SDS011;35869;50.990;6.962;2023-09-08T09:54:53;5.15;;;2.85;;
49978;SDS011;35869;50.990;6.962;2023-09-08T09:59:54;2.72;;;2.20;;
49978;SDS011;35869;50.990;6.962;2023-09-08T10:04:57;662.42;;;81.18;;
49978;SDS011;35869;50.990;6.962;2023-09-08T10:10:10;5.25;;;2.42;;
49978;SDS011;35869;50.990;6.962;2023-09-08T10:15:11;5.63;;;3.80;;
49978;SDS011;35869;50.990;6.962;2023-09-08T10:20:12;3.17;;;1.83;;
49978;SDS011;35869;50.990;6.962;2023-09-08T10:25:13;4.40;;;2.05;;
49978;SDS011;35869;50.990;6.962;2023-09-08T10:30:14;4.30;;;2.13;;
49978;SDS011;35869;50.990;6.962;2023-09-08T10:35:15;4.05;;;2.53;;
49978;SDS011;35869;50.990;6.962;2023-09-08T10:45:20;101.03;;;8.45;;
49978;SDS011;35869;50.990;6.962;2023-09-08T10:50:26;3.78;;;2.67;;
49978;SDS011;35869;50.990;6.962;2023-09-08T10:56:02;4.03;;;2.08;;
49978;SDS011;35869;50.990;6.962;2023-09-08T11:00:56;116.35;;;17.98;;
49978;SDS011;35869;50.990;6.962;2023-09-08T11:05:59;460.35;;;48.78;;
49978;SDS011;35869;50.990;6.962;2023-09-08T11:10:59;5.63;;;5.13;;
49978;SDS011;35869;50.990;6.962;2023-09-08T11:16:01;509.10;;;258.08;;
49978;SDS011;35869;50.990;6.962;2023-09-08T11:26:02;1999.90;;;999.90;;
49978;SDS011;35869;50.990;6.962;2023-09-08T11:31:03;4.43;;;3.63;;
49978;SDS011;35869;50.990;6.962;2023-09-08T11:36:10;4.55;;;4.03;;
49978;SDS011;35869;50.990;6.962;2023-09-08T11:41:12;6.75;;;3.60;;
49978;SDS011;35869;50.990;6.962;2023-09-08T11:46:13;540.22;;;287.63;;
49978;SDS011;35869;50.990;6.962;2023-09-08T11:56:13;201.85;;;98.20;;
49978;SDS011;35869;50.990;6.962;2023-09-08T12:01:13;1999.90;;;999.90;;
49978;SDS011;35869;50.990;6.962;2023-09-08T12:06:14;1999.90;;;999.90;;
49978;SDS011;35869;50.990;6.962;2023-09-08T12:11:14;1999.90;;;999.90;;
49978;SDS011;35869;50.990;6.962;2023-09-08T12:16:20;1999.90;;;999.90;;
49978;SDS011;35869;50.990;6.962;2023-09-08T12:21:21;1999.90;;;999.90;;
49978;SDS011;35869;50.990;6.962;2023-09-08T12:26:21;1999.90;;;999.90;;
49978;SDS011;35869;50.990;6.962;2023-09-08T12:31:24;1030.97;;;529.05;;
49978;SDS011;35869;50.990;6.962;2023-09-08T12:36:24;3.70;;;2.73;;
49978;SDS011;35869;50.990;6.962;2023-09-08T12:41:25;4.38;;;3.03;;
49978;SDS011;35869;50.990;6.962;2023-09-08T12:46:25;6.97;;;3.40;;
49978;SDS011;35869;50.990;6.962;2023-09-08T12:51:25;3.97;;;2.83;;
49978;SDS011;35869;50.990;6.962;2023-09-08T12:56:25;3.65;;;2.78;;
49978;SDS011;35869;50.990;6.962;2023-09-08T13:01:25;5.03;;;3.40;;
49978;SDS011;35869;50.990;6.962;2023-09-08T13:06:26;4.18;;;3.33;;
49978;SDS011;35869;50.990;6.962;2023-09-08T13:11:26;3.25;;;2.95;;
49978;SDS011;35869;50.990;6.962;2023-09-08T13:16:26;4.40;;;3.30;;
49978;SDS011;35869;50.990;6.962;2023-09-08T13:21:26;5.53;;;3.30;;
49978;SDS011;35869;50.990;6.962;2023-09-08T13:26:27;5.18;;;3.10;;
49978;SDS011;35869;50.990;6.962;2023-09-08T13:31:27;7.43;;;3.53;;
49978;SDS011;35869;50.990;6.962;2023-09-08T13:36:29;4.80;;;3.50;;
49978;SDS011;35869;50.990;6.962;2023-09-08T13:42:03;3.70;;;3.03;;
49978;SDS011;35869;50.990;6.962;2023-09-08T13:46:58;2.80;;;2.55;;
49978;SDS011;35869;50.990;6.962;2023-09-08T13:51:59;1548.75;;;776.03;;
49978;SDS011;35869;50.990;6.962;2023-09-08T13:57:00;8.45;;;7.85;;
49978;SDS011;35869;50.990;6.962;2023-09-08T14:02:02;69.35;;;61.25;;
49978;SDS011;35869;50.990;6.962;2023-09-08T14:07:02;134.07;;;46.97;;
49978;SDS011;35869;50.990;6.962;2023-09-08T14:12:03;15.73;;;4.67;;
49978;SDS011;35869;50.990;6.962;2023-09-08T14:17:03;4.70;;;3.88;;
49978;SDS011;35869;50.990;6.962;2023-09-08T14:22:04;20.80;;;5.07;;
49978;SDS011;35869;50.990;6.962;2023-09-08T14:27:04;1999.90;;;999.90;;
49978;SDS011;35869;50.990;6.962;2023-09-08T14:32:04;3.93;;;3.40;;
49978;SDS011;35869;50.990;6.962;2023-09-08T14:37:05;5.43;;;3.10;;
49978;SDS011;35869;50.990;6.962;2023-09-08T14:42:05;3.90;;;3.15;;
49978;SDS011;35869;50.990;6.962;2023-09-08T14:47:05;3.55;;;3.30;;
49978;SDS011;35869;50.990;6.962;2023-09-08T14:52:06;4.68;;;3.15;;
49978;SDS011;35869;50.990;6.962;2023-09-08T14:57:06;3.58;;;3.28;;
49978;SDS011;35869;50.990;6.962;2023-09-08T15:02:07;3.92;;;2.67;;
49978;SDS011;35869;50.990;6.962;2023-09-08T15:07:08;5.93;;;3.05;;
49978;SDS011;35869;50.990;6.962;2023-09-08T15:12:08;3.67;;;3.10;;
49978;SDS011;35869;50.990;6.962;2023-09-08T15:17:10;5.82;;;3.35;;
49978;SDS011;35869;50.990;6.962;2023-09-08T15:22:11;4.90;;;3.08;;
49978;SDS011;35869;50.990;6.962;2023-09-08T15:27:11;3.60;;;3.30;;
49978;SDS011;35869;50.990;6.962;2023-09-08T15:32:11;5.57;;;3.10;;
49978;SDS011;35869;50.990;6.962;2023-09-08T15:37:12;4.60;;;3.65;;
49978;SDS011;35869;50.990;6.962;2023-09-08T15:42:13;7.00;;;3.22;;
49978;SDS011;35869;50.990;6.962;2023-09-08T15:47:13;5.07;;;4.10;;
49978;SDS011;35869;50.990;6.962;2023-09-08T15:52:13;4.82;;;3.53;;
49978;SDS011;35869;50.990;6.962;2023-09-08T15:57:14;9.40;;;3.53;;
49978;SDS011;35869;50.990;6.962;2023-09-08T16:02:14;4.00;;;3.40;;
49978;SDS011;35869;50.990;6.962;2023-09-08T16:07:14;4.38;;;3.40;;
49978;SDS011;35869;50.990;6.962;2023-09-08T16:12:14;3.95;;;3.50;;
49978;SDS011;35869;50.990;6.962;2023-09-08T16:17:15;3.83;;;3.53;;
49978;SDS011;35869;50.990;6.962;2023-09-08T16:22:15;3.80;;;3.28;;
49978;SDS011;35869;50.990;6.962;2023-09-08T16:27:15;3.75;;;3.15;;
49978;SDS011;35869;50.990;6.962;2023-09-08T16:32:15;4.85;;;3.25;;
49978;SDS011;35869;50.990;6.962;2023-09-08T16:37:15;4.00;;;3.30;;
49978;SDS011;35869;50.990;6.962;2023-09-08T16:42:16;4.60;;;3.13;;
49978;SDS011;35869;50.990;6.962;2023-09-08T16:47:16;5.38;;;2.80;;
49978;SDS011;35869;50.990;6.962;2023-09-08T16:52:16;3.70;;;3.17;;
49978;SDS011;35869;50.990;6.962;2023-09-08T16:57:17;4.23;;;3.57;;
49978;SDS011;35869;50.990;6.962;2023-09-08T17:02:17;328.10;;;90.90;;
49978;SDS011;35869;50.990;6.962;2023-09-08T17:07:17;4.30;;;3.90;;
49978;SDS011;35869;50.990;6.962;2023-09-08T17:12:17;7.43;;;4.43;;
49978;SDS011;35869;50.990;6.962;2023-09-08T17:17:17;5.20;;;4.38;;
49978;SDS011;35869;50.990;6.962;2023-09-08T17:22:18;6.90;;;3.35;;
49978;SDS011;35869;50.990;6.962;2023-09-08T17:27:18;6.20;;;3.97;;
49978;SDS011;35869;50.990;6.962;2023-09-08T17:32:18;107.63;;;14.10;;
49978;SDS011;35869;50.990;6.962;2023-09-08T17:37:18;5.25;;;4.03;;
49978;SDS011;35869;50.990;6.962;2023-09-08T17:42:19;338.98;;;70.32;;
49978;SDS011;35869;50.990;6.962;2023-09-08T17:47:19;5.30;;;3.75;;
49978;SDS011;35869;50.990;6.962;2023-09-08T17:52:19;309.10;;;126.60;;
49978;SDS011;35869;50.990;6.962;2023-09-08T17:57:19;1999.90;;;999.90;;
49978;SDS011;35869;50.990;6.962;2023-09-08T18:02:20;1999.90;;;999.90;;
49978;SDS011;35869;50.990;6.962;2023-09-08T18:07:20;1999.90;;;999.90;;
49978;SDS011;35869;50.990;6.962;2023-09-08T18:12:20;1999.90;;;999.90;;
49978;SDS011;35869;50.990;6.962;2023-09-08T18:17:20;1999.90;;;999.90;;
49978;SDS011;35869;50.990;6.962;2023-09-08T18:22:21;8.57;;;4.28;;
49978;SDS011;35869;50.990;6.962;2023-09-08T18:32:21;5.87;;;4.60;;
49978;SDS011;35869;50.990;6.962;2023-09-08T18:42:22;5.40;;;4.53;;
49978;SDS011;35869;50.990;6.962;2023-09-08T18:52:22;6.13;;;4.63;;
49978;SDS011;35869;50.990;6.962;2023-09-08T19:02:22;5.72;;;4.45;;
49978;SDS011;35869;50.990;6.962;2023-09-08T19:12:23;9.20;;;5.57;;
49978;SDS011;35869;50.990;6.962;2023-09-08T19:17:25;6.15;;;5.55;;
49978;SDS011;35869;50.990;6.962;2023-09-08T19:22:25;5.40;;;4.90;;
49978;SDS011;35869;50.990;6.962;2023-09-08T19:27:25;7.78;;;6.13;;
49978;SDS011;35869;50.990;6.962;2023-09-08T19:32:25;5.63;;;5.13;;
49978;SDS011;35869;50.990;6.962;2023-09-08T19:37:26;5.47;;;4.82;;
49978;SDS011;35869;50.990;6.962;2023-09-08T19:42:26;5.88;;;5.28;;
49978;SDS011;35869;50.990;6.962;2023-09-08T19:47:26;7.97;;;5.87;;
49978;SDS011;35869;50.990;6.962;2023-09-08T21:00:26;7.45;;;5.68;;
49978;SDS011;35869;50.990;6.962;2023-09-08T21:05:40;8.52;;;6.72;;
49978;SDS011;35869;50.990;6.962;2023-09-08T21:10:43;9.88;;;6.97;;
49978;SDS011;35869;50.990;6.962;2023-09-08T21:15:46;9.40;;;6.53;;
49978;SDS011;35869;50.990;6.962;2023-09-08T21:31:19;7.65;;;6.47;;
49978;SDS011;35869;50.990;6.962;2023-09-08T21:36:35;7.78;;;6.97;;
49978;SDS011;35869;50.990;6.962;2023-09-08T21:41:35;9.70;;;7.35;;
49978;SDS011;35869;50.990;6.962;2023-09-08T21:46:42;8.18;;;7.38;;
49978;SDS011;35869;50.990;6.962;2023-09-08T21:51:56;9.55;;;7.53;;
49978;SDS011;35869;50.990;6.962;2023-09-08T21:57:01;10.05;;;7.70;;
49978;SDS011;35869;50.990;6.962;2023-09-08T22:02:13;8.63;;;7.05;;
49978;SDS011;35869;50.990;6.962;2023-09-08T22:07:16;9.68;;;8.68;;
49978;SDS011;35869;50.990;6.962;2023-09-08T22:12:16;8.25;;;7.45;;
49978;SDS011;35869;50.990;6.962;2023-09-08T22:17:19;8.35;;;7.53;;
49978;SDS011;35869;50.990;6.962;2023-09-08T22:22:19;10.77;;;8.13;;
49978;SDS011;35869;50.990;6.962;2023-09-08T22:27:19;8.02;;;7.32;;
49978;SDS011;35869;50.990;6.962;2023-09-08T22:32:20;10.30;;;7.75;;
49978;SDS011;35869;50.990;6.962;2023-09-08T22:37:20;9.57;;;8.20;;
49978;SDS011;35869;50.990;6.962;2023-09-08T22:42:20;8.40;;;7.45;;
49978;SDS011;35869;50.990;6.962;2023-09-08T22:47:20;8.77;;;6.95;;
49978;SDS011;35869;50.990;6.962;2023-09-08T22:52:21;8.65;;;7.75;;
49978;SDS011;35869;50.990;6.962;2023-09-08T22:57:21;7.68;;;6.95;;
49978;SDS011;35869;50.990;6.962;2023-09-08T23:02:21;9.38;;;6.85;;
49978;SDS011;35869;50.990;6.962;2023-09-08T23:07:21;7.78;;;6.97;;
49978;SDS011;35869;50.990;6.962;2023-09-08T23:12:22;7.85;;;7.00;;
49978;SDS011;35869;50.990;6.962;2023-09-08T23:17:22;11.38;;;8.15;;
49978;SDS011;35869;50.990;6.962;2023-09-08T23:22:22;7.75;;;7.05;;
49978;SDS011;35869;50.990;6.962;2023-09-08T23:27:22;6.75;;;6.05;;
49978;SDS011;35869;50.990;6.962;2023-09-08T23:32:22;7.18;;;6.38;;
49978;SDS011;35869;50.990;6.962;2023-09-08T23:37:23;8.05;;;6.88;;
49978;SDS011;35869;50.990;6.962;2023-09-08T23:42:23;7.50;;;6.80;;
49978;SDS011;35869;50.990;6.962;2023-09-08T23:47:23;7.78;;;6.97;;
49978;SDS011;35869;50.990;6.962;2023-09-08T23:52:23;9.13;;;7.63;;
49978;SDS011;35869;50.990;6.962;2023-09-08T23:57:23;7.80;;;7.10;;
